Time;durP1;ratioP1;P1;durP2;ratioP2;P2;SDS_P1;SDS_P2;PMS_P1;PMS_P2;Temp;Humidity;BMP_temperature;BMP_pressure;BME280_temperature;BME280_humidity;BME280_pressure;Samples;Min_cycle;Max_cycle;Signal;HPM_P1;HPM_P2
2024/03/16 00:01:48;;;;;;;27.50;5.32;;;;;;;;;;5054241;28;20262;-60
2024/03/16 00:04:13;;;;;;;26.45;5.32;;;;;;;;;;5055159;28;20076;-60
2024/03/16 00:06:39;;;;;;;22.27;6.32;;;;;;;;;;5051570;28;20041;-61
2024/03/16 00:09:04;;;;;;;25.93;6.40;;;;;;;;;;5050560;28;20036;-59
2024/03/16 00:11:31;;;;;;;41.72;7.38;;;;;;;;;;5057215;28;20047;-59
2024/03/16 00:13:57;;;;;;;42.27;7.97;;;;;;;;;;5052786;28;20041;-58
2024/03/16 00:16:22;;;;;;;28.27;8.32;;;;;;;;;;5054932;28;20337;-59
2024/03/16 00:18:48;;;;;;;29.23;8.32;;;;;;;;;;5052901;28;20049;-60
2024/03/16 00:21:13;;;;;;;55.67;10.35;;;;;;;;;;5053828;28;20053;-61
2024/03/16 00:23:39;;;;;;;40.55;8.98;;;;;;;;;;5056501;28;20040;-60
2024/03/16 00:26:04;;;;;;;76.63;14.33;;;;;;;;;;5051720;28;20079;-60
2024/03/16 00:28:30;;;;;;;35.42;10.07;;;;;;;;;;5053216;28;20037;-59
2024/03/16 00:30:55;;;;;;;43.53;11.73;;;;;;;;;;5056598;28;20045;-59
2024/03/16 00:33:21;;;;;;;49.07;10.57;;;;;;;;;;5053456;28;20029;-59
2024/03/16 00:35:47;;;;;;;;;;;;;;;;;;5051754;28;20036;-59
2024/03/16 00:38:13;;;;;;;40.63;10.13;;;;;;;;;;5053187;28;19977;-58
2024/03/16 00:40:38;;;;;;;32.97;10.43;;;;;;;;;;5052865;28;20074;-59
2024/03/16 00:43:04;;;;;;;47.73;11.90;;;;;;;;;;5054169;28;20033;-58
2024/03/16 00:45:30;;;;;;;38.07;12.03;;;;;;;;;;5055944;28;20029;-59
2024/03/16 00:47:56;;;;;;;48.40;11.17;;;;;;;;;;5057123;28;20289;-59
2024/03/16 00:50:21;;;;;;;40.83;11.38;;;;;;;;;;5057275;28;20014;-60
2024/03/16 00:52:47;;;;;;;49.08;13.68;;;;;;;;;;5055830;28;20041;-56
2024/03/16 00:55:13;;;;;;;45.45;11.63;;;;;;;;;;5055087;28;20056;-58
2024/03/16 00:57:38;;;;;;;54.70;13.17;;;;;;;;;;5057098;28;20056;-59
2024/03/16 01:00:04;;;;;;;38.55;11.27;;;;;;;;;;5058649;28;21355;-59
2024/03/16 01:02:29;;;;;;;60.08;13.90;;;;;;;;;;5057221;28;20053;-60
2024/03/16 01:04:56;;;;;;;50.60;12.40;;;;;;;;;;5054796;28;20112;-58
2024/03/16 01:07:22;;;;;;;38.03;10.63;;;;;;;;;;5057822;28;20017;-58
2024/03/16 01:09:48;;;;;;;48.07;11.47;;;;;;;;;;5060963;28;20325;-59
2024/03/16 01:12:13;;;;;;;46.20;10.95;;;;;;;;;;5054662;28;20255;-59
2024/03/16 01:14:40;;;;;;;43.40;10.65;;;;;;;;;;5057892;28;20044;-61
2024/03/16 01:17:06;;;;;;;;;;;;;;;;;;5056298;28;20033;-58
2024/03/16 01:19:31;;;;;;;46.83;11.47;;;;;;;;;;5055373;28;19945;-59
2024/03/16 01:21:57;;;;;;;46.92;11.80;;;;;;;;;;5060231;28;20029;-60
2024/03/16 01:24:22;;;;;;;37.95;10.55;;;;;;;;;;5056784;28;20041;-59
2024/03/16 01:26:47;;;;;;;43.07;11.27;;;;;;;;;;5056539;28;20144;-58
2024/03/16 01:29:15;;;;;;;43.27;11.70;;;;;;;;;;5056329;28;20053;-60
2024/03/16 01:31:41;;;;;;;51.50;11.60;;;;;;;;;;5053479;28;20071;-60
2024/03/16 01:34:07;;;;;;;50.28;12.63;;;;;;;;;;5054742;28;20267;-60
2024/03/16 01:36:32;;;;;;;39.23;13.23;;;;;;;;;;5056873;28;20064;-58
2024/03/16 01:38:59;;;;;;;45.40;12.70;;;;;;;;;;5057020;28;20037;-58
2024/03/16 01:41:24;;;;;;;;;;;;;;;;;;5056108;28;20288;-58
2024/03/16 01:43:50;;;;;;;49.73;12.30;;;;;;;;;;5058772;28;19917;-57
2024/03/16 01:46:16;;;;;;;50.80;13.70;;;;;;;;;;5057067;28;20048;-60
2024/03/16 01:48:42;;;;;;;54.47;14.13;;;;;;;;;;5058797;28;20080;-59
2024/03/16 01:51:07;;;;;;;67.20;18.20;;;;;;;;;;5056063;28;20022;-59
2024/03/16 01:53:33;;;;;;;80.68;22.52;;;;;;;;;;5057194;28;20044;-59
2024/03/16 01:55:58;;;;;;;86.93;20.17;;;;;;;;;;5057894;28;20048;-59
2024/03/16 01:58:24;;;;;;;65.03;18.67;;;;;;;;;;5057012;28;20095;-57
2024/03/16 02:00:49;;;;;;;85.70;22.00;;;;;;;;;;5058498;28;20048;-59
2024/03/16 02:03:14;;;;;;;84.20;20.33;;;;;;;;;;5053405;28;20089;-60
2024/03/16 02:05:41;;;;;;;98.97;24.53;;;;;;;;;;5058431;28;20057;-58
2024/03/16 02:08:07;;;;;;;86.10;23.33;;;;;;;;;;5054458;28;20040;-60
2024/03/16 02:10:32;;;;;;;92.85;28.25;;;;;;;;;;5053400;28;20258;-59
2024/03/16 02:12:57;;;;;;;103.93;26.40;;;;;;;;;;5056248;28;20033;-59
2024/03/16 02:15:23;;;;;;;112.17;27.40;;;;;;;;;;5052490;28;20021;-60
2024/03/16 02:17:50;;;;;;;77.83;22.20;;;;;;;;;;5056722;28;20065;-59
2024/03/16 02:20:15;;;;;;;78.63;22.63;;;;;;;;;;5056424;28;20056;-59
2024/03/16 02:22:44;;;;;;;64.28;18.25;;;;;;;;;;5056892;28;20265;-59
2024/03/16 02:25:13;;;;;;;63.13;15.43;;;;;;;;;;5055138;28;20029;-58
2024/03/16 02:27:39;;;;;;;51.53;12.20;;;;;;;;;;5053625;28;20279;-59
2024/03/16 02:30:05;;;;;;;30.70;9.13;;;;;;;;;;5054041;28;20342;-60
2024/03/16 02:32:30;;;;;;;28.88;6.53;;;;;;;;;;5054003;28;20262;-58
2024/03/16 02:34:55;;;;;;;35.53;7.97;;;;;;;;;;5056045;28;20037;-61
2024/03/16 02:37:21;;;;;;;31.85;7.00;;;;;;;;;;5052300;28;21071;-59
2024/03/16 02:39:46;;;;;;;27.60;7.13;;;;;;;;;;5055514;28;20040;-58
2024/03/16 02:42:12;;;;;;;34.03;6.60;;;;;;;;;;5054540;28;20037;-59
2024/03/16 02:44:40;;;;;;;25.13;7.47;;;;;;;;;;5053213;28;20033;-58
2024/03/16 02:47:06;;;;;;;26.17;7.43;;;;;;;;;;5055046;28;20282;-59
2024/03/16 02:49:31;;;;;;;34.10;8.70;;;;;;;;;;5053465;28;20262;-60
2024/03/16 02:51:57;;;;;;;20.90;6.97;;;;;;;;;;5054085;28;20041;-59
2024/03/16 02:54:23;;;;;;;29.95;6.68;;;;;;;;;;5054592;28;20059;-59
2024/03/16 02:56:49;;;;;;;16.20;6.75;;;;;;;;;;5053584;28;20052;-59
2024/03/16 02:59:14;;;;;;;22.65;7.18;;;;;;;;;;5051124;28;20025;-58
2024/03/16 03:01:40;;;;;;;18.40;7.30;;;;;;;;;;5054101;28;20059;-57
2024/03/16 03:04:06;;;;;;;26.57;7.77;;;;;;;;;;5053546;28;20029;-59
2024/03/16 03:06:32;;;;;;;16.43;5.90;;;;;;;;;;5054755;28;20041;-59
2024/03/16 03:08:57;;;;;;;12.73;5.40;;;;;;;;;;5055771;28;20296;-57
2024/03/16 03:11:23;;;;;;;17.27;5.50;;;;;;;;;;5053766;28;20038;-56
2024/03/16 03:13:48;;;;;;;11.77;5.75;;;;;;;;;;5055700;28;20053;-57
2024/03/16 03:16:19;;;;;;;10.80;5.88;;;;;;;;;;5055124;28;20018;-59
2024/03/16 03:18:46;;;;;;;16.30;5.63;;;;;;;;;;5053911;28;20068;-58
2024/03/16 03:21:12;;;;;;;14.43;6.05;;;;;;;;;;5054424;28;20326;-59
2024/03/16 03:23:37;;;;;;;11.10;5.03;;;;;;;;;;5052459;28;20049;-60
2024/03/16 03:26:03;;;;;;;18.80;5.55;;;;;;;;;;5052832;28;20926;-59
2024/03/16 03:28:28;;;;;;;10.27;4.57;;;;;;;;;;5050798;28;20068;-59
2024/03/16 03:30:54;;;;;;;13.63;5.20;;;;;;;;;;5053455;28;20033;-58
2024/03/16 03:33:19;;;;;;;13.30;6.15;;;;;;;;;;5053906;28;20087;-59
2024/03/16 03:35:45;;;;;;;11.93;4.67;;;;;;;;;;5052785;28;20092;-59
2024/03/16 03:38:10;;;;;;;15.37;5.13;;;;;;;;;;5052515;28;20259;-58
2024/03/16 03:40:36;;;;;;;17.55;5.22;;;;;;;;;;5052840;28;20040;-59
2024/03/16 03:43:04;;;;;;;10.27;5.00;;;;;;;;;;5052272;28;20066;-58
2024/03/16 03:45:49;;;;;;;24.13;5.67;;;;;;;;;;5055350;28;20036;-57
2024/03/16 03:50:56;;;;;;;19.63;4.97;;;;;;;;;;5053400;28;20265;-59
2024/03/16 03:53:23;;;;;;;13.97;5.23;;;;;;;;;;5053168;28;20271;-58
2024/03/16 03:55:49;;;;;;;9.50;4.33;;;;;;;;;;5055928;28;20488;-57
2024/03/16 03:58:14;;;;;;;17.33;4.67;;;;;;;;;;5056780;28;20274;-59
2024/03/16 04:00:42;;;;;;;19.47;4.60;;;;;;;;;;5054240;28;20302;-59
2024/03/16 04:03:08;;;;;;;12.03;4.53;;;;;;;;;;5057095;28;20109;-60
2024/03/16 04:05:33;;;;;;;19.83;5.27;;;;;;;;;;5053119;28;20278;-59
2024/03/16 04:07:59;;;;;;;15.03;4.63;;;;;;;;;;5056249;28;20293;-55
2024/03/16 04:10:25;;;;;;;18.92;5.53;;;;;;;;;;5052380;28;20025;-57
2024/03/16 04:12:50;;;;;;;15.63;5.37;;;;;;;;;;5057063;28;20033;-59
2024/03/16 04:15:16;;;;;;;22.70;5.27;;;;;;;;;;5054247;28;20296;-58
2024/03/16 04:17:41;;;;;;;18.13;5.45;;;;;;;;;;5055567;28;20305;-58
2024/03/16 04:20:10;;;;;;;22.77;5.50;;;;;;;;;;5053645;28;20048;-58
2024/03/16 04:22:36;;;;;;;22.20;7.30;;;;;;;;;;5059168;28;20113;-58
2024/03/16 04:25:03;;;;;;;19.53;6.23;;;;;;;;;;5058702;28;20250;-58
2024/03/16 04:27:29;;;;;;;23.17;6.80;;;;;;;;;;5057964;28;20278;-56
2024/03/16 04:29:55;;;;;;;19.50;6.38;;;;;;;;;;5055401;28;20304;-58
2024/03/16 04:32:26;;;;;;;14.68;6.03;;;;;;;;;;5059159;28;20040;-58
2024/03/16 04:34:55;;;;;;;22.33;6.17;;;;;;;;;;5053802;28;20049;-58
2024/03/16 04:37:21;;;;;;;23.10;6.30;;;;;;;;;;5054965;28;20254;-59
2024/03/16 04:39:47;;;;;;;18.90;6.80;;;;;;;;;;5056259;28;20258;-57
2024/03/16 04:42:13;;;;;;;20.93;4.83;;;;;;;;;;5056985;28;20084;-60
2024/03/16 04:44:39;;;;;;;13.50;5.25;;;;;;;;;;5054633;28;20308;-57
2024/03/16 04:47:04;;;;;;;15.97;4.00;;;;;;;;;;5054304;28;20037;-59
2024/03/16 04:49:30;;;;;;;10.07;3.40;;;;;;;;;;5055631;28;20033;-59
2024/03/16 04:51:56;;;;;;;10.68;3.55;;;;;;;;;;5055035;28;20029;-57
2024/03/16 04:54:22;;;;;;;10.43;3.78;;;;;;;;;;5054007;28;20056;-58
2024/03/16 04:56:47;;;;;;;23.15;3.72;;;;;;;;;;5055194;28;20029;-58
2024/03/16 04:59:12;;;;;;;15.77;3.77;;;;;;;;;;5056567;28;20021;-58
2024/03/16 05:01:38;;;;;;;20.77;5.25;;;;;;;;;;5055015;28;20083;-58
2024/03/16 05:04:04;;;;;;;14.05;4.53;;;;;;;;;;5058541;28;20036;-58
2024/03/16 05:06:33;;;;;;;14.30;5.35;;;;;;;;;;5055729;28;20017;-56
2024/03/16 05:08:58;;;;;;;13.10;5.40;;;;;;;;;;5055232;28;20037;-57
2024/03/16 05:11:24;;;;;;;20.33;5.20;;;;;;;;;;5055845;28;20272;-56
2024/03/16 05:13:49;;;;;;;23.73;5.30;;;;;;;;;;5056962;28;20029;-59
2024/03/16 05:16:15;;;;;;;16.42;4.82;;;;;;;;;;5062971;28;20028;-58
2024/03/16 05:18:40;;;;;;;11.27;4.73;;;;;;;;;;5054956;28;20072;-55
2024/03/16 05:21:06;;;;;;;17.63;4.80;;;;;;;;;;5053699;28;20052;-56
2024/03/16 05:23:32;;;;;;;19.97;4.13;;;;;;;;;;5053903;28;20105;-57
2024/03/16 05:25:59;;;;;;;14.57;5.07;;;;;;;;;;5056515;28;20274;-59
2024/03/16 05:28:25;;;;;;;13.90;4.90;;;;;;;;;;5054149;28;20274;-59
2024/03/16 05:30:53;;;;;;;9.87;4.57;;;;;;;;;;5054163;28;20297;-59
2024/03/16 05:33:19;;;;;;;18.67;4.90;;;;;;;;;;5055789;28;20285;-57
2024/03/16 05:35:44;;;;;;;19.70;4.90;;;;;;;;;;5054418;28;20273;-59
2024/03/16 05:38:11;;;;;;;14.57;4.40;;;;;;;;;;5055362;28;20259;-53
2024/03/16 05:40:41;;;;;;;14.07;3.88;;;;;;;;;;5053816;28;20018;-56
2024/03/16 05:43:07;;;;;;;22.67;5.00;;;;;;;;;;5055623;28;20029;-57
2024/03/16 05:45:32;;;;;;;11.17;4.20;;;;;;;;;;5055827;28;20269;-58
2024/03/16 05:47:58;;;;;;;24.53;4.30;;;;;;;;;;5056137;28;20286;-58
2024/03/16 05:50:23;;;;;;;13.07;4.03;;;;;;;;;;5057235;28;20258;-56
2024/03/16 05:52:49;;;;;;;17.47;4.77;;;;;;;;;;5055513;28;20277;-58
2024/03/16 05:55:15;;;;;;;22.40;4.50;;;;;;;;;;5054207;28;20254;-56
2024/03/16 05:57:41;;;;;;;15.83;4.60;;;;;;;;;;5055251;28;20190;-56
2024/03/16 06:00:13;;;;;;;12.27;4.20;;;;;;;;;;5055238;28;20269;-57
2024/03/16 06:02:39;;;;;;;9.97;3.53;;;;;;;;;;5053061;28;20281;-58
2024/03/16 06:05:04;;;;;;;17.40;4.75;;;;;;;;;;5052774;28;20262;-58
2024/03/16 06:07:30;;;;;;;13.90;3.47;;;;;;;;;;5054851;28;20041;-55
2024/03/16 06:09:56;;;;;;;15.70;2.97;;;;;;;;;;5054558;28;20270;-57
2024/03/16 06:12:22;;;;;;;;;;;;;;;;;;5054054;28;20036;-58
2024/03/16 06:14:47;;;;;;;6.63;2.27;;;;;;;;;;5054764;28;19917;-55
2024/03/16 06:17:13;;;;;;;3.17;1.40;;;;;;;;;;5054620;28;20113;-56
2024/03/16 06:19:38;;;;;;;6.73;1.77;;;;;;;;;;5054553;28;20274;-56
2024/03/16 06:22:05;;;;;;;10.67;2.70;;;;;;;;;;5054879;28;20270;-55
2024/03/16 06:24:31;;;;;;;5.63;1.90;;;;;;;;;;5054587;28;20263;-57
2024/03/16 06:27:03;;;;;;;9.90;2.45;;;;;;;;;;5054252;28;20267;-57
2024/03/16 06:29:30;;;;;;;10.63;2.40;;;;;;;;;;5053905;28;20097;-55
2024/03/16 06:32:05;;;;;;;11.27;2.03;;;;;;;;;;5055472;28;20285;-57
2024/03/16 06:34:30;;;;;;;6.70;1.47;;;;;;;;;;5054606;28;20270;-56
2024/03/16 06:36:55;;;;;;;14.55;2.22;;;;;;;;;;5053887;28;20271;-56
2024/03/16 06:39:21;;;;;;;6.88;1.75;;;;;;;;;;5054710;28;20045;-57
2024/03/16 06:41:46;;;;;;;9.98;1.85;;;;;;;;;;5050828;28;20045;-58
2024/03/16 06:44:12;;;;;;;6.40;1.40;;;;;;;;;;5054637;28;20058;-59
2024/03/16 06:46:37;;;;;;;6.03;1.60;;;;;;;;;;5053854;28;20029;-57
2024/03/16 06:49:05;;;;;;;9.02;2.63;;;;;;;;;;5055472;28;20305;-57
2024/03/16 06:51:31;;;;;;;7.53;1.87;;;;;;;;;;5053597;28;20033;-57
2024/03/16 06:53:56;;;;;;;13.80;2.38;;;;;;;;;;5053460;28;20280;-57
2024/03/16 06:56:22;;;;;;;11.77;2.10;;;;;;;;;;5052981;28;20032;-58
2024/03/16 06:58:47;;;;;;;12.17;2.10;;;;;;;;;;5052134;28;20290;-58
2024/03/16 07:01:14;;;;;;;8.32;1.67;;;;;;;;;;5053666;28;20033;-56
2024/03/16 07:03:40;;;;;;;12.30;1.80;;;;;;;;;;5051902;28;20049;-56
2024/03/16 07:06:06;;;;;;;13.50;2.80;;;;;;;;;;5055737;28;20355;-58
2024/03/16 07:08:33;;;;;;;7.83;1.70;;;;;;;;;;5051452;28;20037;-56
2024/03/16 07:10:59;;;;;;;9.13;1.98;;;;;;;;;;5053194;28;20263;-57
2024/03/16 07:13:24;;;;;;;8.48;1.40;;;;;;;;;;5051414;28;20053;-57
2024/03/16 07:15:50;;;;;;;20.90;3.03;;;;;;;;;;5054229;28;20094;-58
2024/03/16 07:18:16;;;;;;;7.07;1.48;;;;;;;;;;5051333;28;20033;-58
2024/03/16 07:20:41;;;;;;;6.80;2.70;;;;;;;;;;5053505;28;20116;-55
2024/03/16 07:23:07;;;;;;;23.30;2.30;;;;;;;;;;5052489;28;20052;-57
2024/03/16 07:25:32;;;;;;;13.45;2.15;;;;;;;;;;5055691;28;20041;-57
2024/03/16 07:27:58;;;;;;;10.00;1.73;;;;;;;;;;5051890;28;20040;-58
2024/03/16 07:30:25;;;;;;;14.50;2.08;;;;;;;;;;5053702;28;20085;-58
2024/03/16 07:32:50;;;;;;;12.40;2.03;;;;;;;;;;5055910;28;20037;-57
2024/03/16 07:35:16;;;;;;;5.93;1.20;;;;;;;;;;5052920;28;20037;-54
2024/03/16 07:37:42;;;;;;;11.73;2.65;;;;;;;;;;5053127;28;20029;-57
2024/03/16 07:40:13;;;;;;;7.57;1.38;;;;;;;;;;5050837;28;20093;-55
2024/03/16 07:42:40;;;;;;;10.07;1.97;;;;;;;;;;5053826;28;20021;-58
2024/03/16 07:45:07;;;;;;;9.10;1.80;;;;;;;;;;5051892;28;20266;-56
2024/03/16 07:47:32;;;;;;;11.02;3.10;;;;;;;;;;5052251;28;20341;-57
2024/03/16 07:49:58;;;;;;;9.00;2.30;;;;;;;;;;5052275;28;20048;-58
2024/03/16 07:52:24;;;;;;;8.38;2.15;;;;;;;;;;5049808;28;20021;-57
2024/03/16 07:54:49;;;;;;;12.03;1.90;;;;;;;;;;5049762;28;20068;-55
2024/03/16 07:57:15;;;;;;;18.42;2.33;;;;;;;;;;5051206;28;20034;-57
2024/03/16 07:59:40;;;;;;;10.02;2.35;;;;;;;;;;5051222;28;20034;-56
2024/03/16 08:02:06;;;;;;;10.73;2.17;;;;;;;;;;5052338;28;20093;-56
2024/03/16 08:04:33;;;;;;;8.40;2.10;;;;;;;;;;5052347;28;20072;-57
2024/03/16 08:06:58;;;;;;;8.93;1.97;;;;;;;;;;5055294;28;20038;-57
2024/03/16 08:09:24;;;;;;;9.68;2.03;;;;;;;;;;5051374;28;20262;-56
2024/03/16 08:11:50;;;;;;;6.40;1.80;;;;;;;;;;5053086;28;20181;-55
2024/03/16 08:14:16;;;;;;;14.65;2.40;;;;;;;;;;5052735;28;20033;-57
2024/03/16 08:16:41;;;;;;;13.75;2.55;;;;;;;;;;5053662;28;20051;-59
2024/03/16 08:19:07;;;;;;;7.68;1.90;;;;;;;;;;5053705;28;20025;-58
2024/03/16 08:21:33;;;;;;;9.00;1.83;;;;;;;;;;5051693;28;20046;-60
2024/03/16 08:23:58;;;;;;;7.83;2.67;;;;;;;;;;5052276;28;20030;-56
2024/03/16 08:26:24;;;;;;;16.13;2.70;;;;;;;;;;5056845;28;20037;-58
2024/03/16 08:28:49;;;;;;;9.73;2.10;;;;;;;;;;5052041;28;20038;-57
2024/03/16 08:31:15;;;;;;;9.02;2.30;;;;;;;;;;5053193;28;20036;-58
2024/03/16 08:33:41;;;;;;;17.25;2.75;;;;;;;;;;5055009;28;20063;-56
2024/03/16 08:36:06;;;;;;;14.27;2.10;;;;;;;;;;5053552;28;20022;-58
2024/03/16 08:38:36;;;;;;;9.45;2.92;;;;;;;;;;5053703;28;20045;-58
2024/03/16 08:41:01;;;;;;;9.37;2.20;;;;;;;;;;5049613;28;20053;-57
2024/03/16 08:43:26;;;;;;;13.40;2.42;;;;;;;;;;5054206;28;20281;-57
2024/03/16 08:45:52;;;;;;;11.73;3.03;;;;;;;;;;5053241;28;20064;-58
2024/03/16 08:48:17;;;;;;;11.23;3.00;;;;;;;;;;5053241;28;20088;-59
2024/03/16 08:50:43;;;;;;;13.43;2.75;;;;;;;;;;5054928;28;20021;-59
2024/03/16 08:53:08;;;;;;;10.45;2.65;;;;;;;;;;5067903;28;20049;-58
2024/03/16 08:55:34;;;;;;;6.93;1.80;;;;;;;;;;5053135;28;20033;-58
2024/03/16 08:57:59;;;;;;;13.63;2.40;;;;;;;;;;5054055;28;20281;-54
2024/03/16 09:00:25;;;;;;;11.05;2.42;;;;;;;;;;5053050;28;20033;-58
2024/03/16 09:02:52;;;;;;;11.73;1.83;;;;;;;;;;5055894;28;20048;-58
2024/03/16 09:05:18;;;;;;;7.30;1.80;;;;;;;;;;5057774;28;20342;-57
2024/03/16 09:07:44;;;;;;;11.13;2.30;;;;;;;;;;5058713;28;20282;-58
2024/03/16 09:10:10;;;;;;;6.15;1.30;;;;;;;;;;5053976;28;20129;-58
2024/03/16 09:12:36;;;;;;;7.47;1.53;;;;;;;;;;5056958;28;20038;-58
2024/03/16 09:15:04;;;;;;;7.03;1.53;;;;;;;;;;5055910;28;20272;-57
2024/03/16 09:17:30;;;;;;;4.83;1.53;;;;;;;;;;5055569;28;20037;-56
2024/03/16 09:19:56;;;;;;;6.90;1.60;;;;;;;;;;5058361;28;20266;-60
2024/03/16 09:22:21;;;;;;;6.22;1.67;;;;;;;;;;5054337;28;20038;-62
2024/03/16 09:24:47;;;;;;;7.17;2.00;;;;;;;;;;5055901;28;20057;-60
2024/03/16 09:27:13;;;;;;;7.30;1.50;;;;;;;;;;5056319;28;20021;-59
2024/03/16 09:29:41;;;;;;;6.50;1.42;;;;;;;;;;5057416;28;20060;-57
2024/03/16 09:32:07;;;;;;;8.43;1.70;;;;;;;;;;5058749;28;20033;-57
2024/03/16 09:34:32;;;;;;;5.82;2.15;;;;;;;;;;5056254;28;20292;-57
2024/03/16 09:36:57;;;;;;;5.07;1.80;;;;;;;;;;5055084;28;20113;-57
2024/03/16 09:39:26;;;;;;;4.05;1.27;;;;;;;;;;5054252;28;20025;-57
2024/03/16 09:41:52;;;;;;;10.60;2.20;;;;;;;;;;5056158;28;20018;-59
2024/03/16 09:44:18;;;;;;;9.38;1.75;;;;;;;;;;5053653;28;20331;-58
2024/03/16 09:46:43;;;;;;;5.00;1.52;;;;;;;;;;5053736;28;20030;-57
2024/03/16 09:49:12;;;;;;;9.07;1.92;;;;;;;;;;5054067;28;20045;-58
2024/03/16 09:51:39;;;;;;;9.07;1.90;;;;;;;;;;5050814;28;20059;-58
2024/03/16 09:54:11;;;;;;;6.60;1.93;;;;;;;;;;5056621;28;20283;-59
2024/03/16 09:56:37;;;;;;;5.70;2.07;;;;;;;;;;5054830;28;20033;-56
2024/03/16 09:59:06;;;;;;;6.13;1.70;;;;;;;;;;5054632;28;20265;-58
2024/03/16 10:01:34;;;;;;;4.80;1.50;;;;;;;;;;5056880;28;20045;-57
2024/03/16 10:03:59;;;;;;;9.77;1.90;;;;;;;;;;5053182;28;20285;-56
2024/03/16 10:06:25;;;;;;;6.63;1.80;;;;;;;;;;5053890;28;20277;-55
2024/03/16 10:09:10;;;;;;;11.33;2.10;;;;;;;;;;5056453;28;20083;-58
2024/03/16 10:11:37;;;;;;;12.60;2.63;;;;;;;;;;5053143;28;20030;-59
2024/03/16 10:14:07;;;;;;;8.10;1.90;;;;;;;;;;5053787;28;20293;-58
2024/03/16 10:16:33;;;;;;;8.93;2.07;;;;;;;;;;5055964;28;20309;-57
2024/03/16 10:18:58;;;;;;;8.27;2.33;;;;;;;;;;5057237;28;20259;-57
2024/03/16 10:21:27;;;;;;;4.30;1.80;;;;;;;;;;5053685;28;20262;-59
2024/03/16 10:23:53;;;;;;;7.43;2.00;;;;;;;;;;5054403;28;20063;-57
2024/03/16 10:26:19;;;;;;;6.93;1.48;;;;;;;;;;5058635;28;20317;-58
2024/03/16 10:28:46;;;;;;;5.45;1.70;;;;;;;;;;5058584;28;20034;-59
2024/03/16 10:31:11;;;;;;;6.03;1.63;;;;;;;;;;5054211;28;20030;-60
2024/03/16 10:33:38;;;;;;;8.68;2.13;;;;;;;;;;5053986;28;20254;-58
2024/03/16 10:36:03;;;;;;;6.28;1.42;;;;;;;;;;5055754;28;20009;-57
2024/03/16 10:38:30;;;;;;;5.70;1.88;;;;;;;;;;5055175;28;20114;-57
2024/03/16 10:40:59;;;;;;;7.88;1.73;;;;;;;;;;5053471;28;20029;-58
2024/03/16 10:43:30;;;;;;;8.43;1.77;;;;;;;;;;5052465;28;20036;-56
2024/03/16 10:45:56;;;;;;;13.43;1.90;;;;;;;;;;5054538;28;20274;-59
2024/03/16 10:48:22;;;;;;;10.20;1.80;;;;;;;;;;5053376;28;20266;-56
2024/03/16 10:50:48;;;;;;;9.90;1.77;;;;;;;;;;5054757;28;20286;-56
2024/03/16 10:53:16;;;;;;;5.82;1.83;;;;;;;;;;5055595;28;20037;-58
2024/03/16 10:55:42;;;;;;;4.87;1.20;;;;;;;;;;5051955;28;20037;-57
2024/03/16 10:58:27;;;;;;;4.78;1.27;;;;;;;;;;5055157;28;20266;-58
2024/03/16 11:01:08;;;;;;;6.43;1.97;;;;;;;;;;5051920;28;20101;-57
2024/03/16 11:03:33;;;;;;;5.40;1.83;;;;;;;;;;5053828;28;20270;-61
2024/03/16 11:06:01;;;;;;;6.63;1.40;;;;;;;;;;5053101;28;20320;-58
2024/03/16 11:08:41;;;;;;;5.37;1.03;;;;;;;;;;5055861;28;20029;-56
2024/03/16 11:11:08;;;;;;;9.07;2.00;;;;;;;;;;5052962;28;20254;-59
2024/03/16 11:13:33;;;;;;;4.15;1.30;;;;;;;;;;5054229;28;20255;-58
2024/03/16 11:15:59;;;;;;;4.63;1.20;;;;;;;;;;5058746;28;20037;-56
2024/03/16 11:18:37;;;;;;;2.87;1.23;;;;;;;;;;5053675;28;20132;-59
2024/03/16 11:21:03;;;;;;;3.07;0.90;;;;;;;;;;5053344;28;20049;-59
2024/03/16 11:23:30;;;;;;;5.63;1.50;;;;;;;;;;5055845;28;20096;-56
2024/03/16 11:25:55;;;;;;;;;;;;;;;;;;5053409;28;20037;-58
2024/03/16 11:28:21;;;;;;;9.65;1.35;;;;;;;;;;5053728;28;19985;-57
2024/03/16 11:30:46;;;;;;;5.53;1.20;;;;;;;;;;5052132;28;20029;-57
2024/03/16 11:33:19;;;;;;;8.70;1.10;;;;;;;;;;5057178;28;20037;-56
2024/03/16 11:35:45;;;;;;;5.27;1.23;;;;;;;;;;5052713;28;20029;-58
2024/03/16 11:38:11;;;;;;;8.63;1.73;;;;;;;;;;5053252;28;20191;-61
2024/03/16 11:40:40;;;;;;;5.72;1.70;;;;;;;;;;5053340;28;20029;-59
2024/03/16 11:43:08;;;;;;;6.50;1.73;;;;;;;;;;5052859;28;20109;-57
2024/03/16 11:45:34;;;;;;;7.73;1.50;;;;;;;;;;5060237;28;20030;-58
2024/03/16 11:48:00;;;;;;;7.22;1.67;;;;;;;;;;5054969;28;20079;-57
2024/03/16 11:50:26;;;;;;;5.70;2.00;;;;;;;;;;5052353;28;20052;-56
2024/03/16 11:52:52;;;;;;;4.78;1.33;;;;;;;;;;5051133;28;20044;-59
2024/03/16 11:55:19;;;;;;;7.68;1.92;;;;;;;;;;5054777;28;20045;-58
2024/03/16 11:57:45;;;;;;;6.63;1.60;;;;;;;;;;5072456;28;20053;-59
2024/03/16 12:00:12;;;;;;;7.78;2.00;;;;;;;;;;5053241;28;20068;-58
2024/03/16 12:02:39;;;;;;;8.17;1.87;;;;;;;;;;5050031;28;20067;-57
2024/03/16 12:05:05;;;;;;;7.85;1.67;;;;;;;;;;5053737;28;20030;-59
2024/03/16 12:07:30;;;;;;;9.70;1.45;;;;;;;;;;5050565;28;20061;-56
2024/03/16 12:09:55;;;;;;;6.63;1.83;;;;;;;;;;5050999;28;20068;-59
2024/03/16 12:12:21;;;;;;;8.87;1.57;;;;;;;;;;5053348;28;20106;-57
2024/03/16 12:15:09;;;;;;;8.18;1.58;;;;;;;;;;5053317;28;20301;-60
2024/03/16 12:17:36;;;;;;;10.83;2.10;;;;;;;;;;5051541;28;20102;-59
2024/03/16 12:20:05;;;;;;;6.80;1.40;;;;;;;;;;5051725;28;20096;-59
2024/03/16 12:22:31;;;;;;;5.37;1.40;;;;;;;;;;5052693;28;20033;-60
2024/03/16 12:24:57;;;;;;;;;;;;;;;;;;5053624;28;20052;-60
2024/03/16 12:27:22;;;;;;;8.57;1.77;;;;;;;;;;5050413;28;19913;-57
2024/03/16 12:29:48;;;;;;;6.18;2.13;;;;;;;;;;5049915;28;20036;-56
2024/03/16 12:32:13;;;;;;;9.02;1.30;;;;;;;;;;5051368;28;20105;-60
2024/03/16 12:34:39;;;;;;;11.50;1.63;;;;;;;;;;5052239;28;20033;-59
2024/03/16 12:37:06;;;;;;;9.53;1.83;;;;;;;;;;5054884;28;20029;-59
2024/03/16 12:39:32;;;;;;;7.03;1.67;;;;;;;;;;5052659;28;20123;-60
2024/03/16 12:41:57;;;;;;;;;;;;;;;;;;5056540;28;20055;-60
2024/03/16 12:44:23;;;;;;;6.47;1.30;;;;;;;;;;5055124;28;19909;-60
2024/03/16 12:46:49;;;;;;;6.57;1.40;;;;;;;;;;5054952;28;20030;-58
2024/03/16 12:49:15;;;;;;;;;;;;;;;;;;5054523;28;20033;-60
2024/03/16 12:51:40;;;;;;;4.33;1.17;;;;;;;;;;5055062;28;19917;-59
2024/03/16 12:54:07;;;;;;;7.35;1.33;;;;;;;;;;5054703;28;20035;-58
2024/03/16 12:56:37;;;;;;;3.40;1.00;;;;;;;;;;5056686;28;20056;-60
2024/03/16 12:59:04;;;;;;;6.77;1.50;;;;;;;;;;5056326;28;20045;-59
2024/03/16 13:01:31;;;;;;;6.00;1.20;;;;;;;;;;5057281;28;20044;-63
2024/03/16 13:03:57;;;;;;;5.87;1.07;;;;;;;;;;5059529;28;20038;-59
2024/03/16 13:06:23;;;;;;;5.43;1.00;;;;;;;;;;5059015;28;20024;-58
2024/03/16 13:08:49;;;;;;;5.53;1.20;;;;;;;;;;5058166;28;20056;-58
2024/03/16 13:11:15;;;;;;;5.93;1.42;;;;;;;;;;5053135;28;20109;-60
2024/03/16 13:13:41;;;;;;;4.78;1.00;;;;;;;;;;5059282;28;20033;-59
2024/03/16 13:16:06;;;;;;;7.60;1.13;;;;;;;;;;5058796;28;20060;-58
2024/03/16 13:18:32;;;;;;;7.47;1.20;;;;;;;;;;5056042;28;20104;-59
2024/03/16 13:20:57;;;;;;;2.55;0.95;;;;;;;;;;5055829;28;20037;-60
2024/03/16 13:23:22;;;;;;;8.10;1.77;;;;;;;;;;5053739;28;20037;-59
2024/03/16 13:25:48;;;;;;;3.80;1.13;;;;;;;;;;5054696;28;20338;-59
2024/03/16 13:28:14;;;;;;;3.70;1.30;;;;;;;;;;5052637;28;20049;-60
2024/03/16 13:30:39;;;;;;;3.38;1.30;;;;;;;;;;5060731;28;20040;-59
2024/03/16 13:33:08;;;;;;;6.27;0.90;;;;;;;;;;5056057;28;20033;-60
2024/03/16 13:35:33;;;;;;;2.57;0.83;;;;;;;;;;5056833;28;20029;-58
2024/03/16 13:37:59;;;;;;;11.10;1.65;;;;;;;;;;5054880;28;20037;-59
2024/03/16 13:40:25;;;;;;;5.22;1.20;;;;;;;;;;5057181;28;20033;-57
2024/03/16 13:42:52;;;;;;;7.93;1.50;;;;;;;;;;5055096;28;20040;-57
2024/03/16 13:45:18;;;;;;;5.93;1.57;;;;;;;;;;5055028;28;20040;-59
2024/03/16 13:47:44;;;;;;;5.20;1.33;;;;;;;;;;5056301;28;20147;-60
2024/03/16 13:50:09;;;;;;;5.20;1.30;;;;;;;;;;5054647;28;20112;-58
2024/03/16 13:52:35;;;;;;;9.93;1.75;;;;;;;;;;5054961;28;20029;-59
2024/03/16 13:55:00;;;;;;;7.00;1.50;;;;;;;;;;5055775;28;20041;-58
2024/03/16 13:57:25;;;;;;;2.43;0.90;;;;;;;;;;5052448;28;20037;-58
2024/03/16 13:59:50;;;;;;;8.00;1.23;;;;;;;;;;5054436;28;20033;-57
2024/03/16 14:02:18;;;;;;;13.00;1.50;;;;;;;;;;5058254;28;20033;-59
2024/03/16 14:04:44;;;;;;;5.40;1.10;;;;;;;;;;5056336;28;20033;-59
2024/03/16 14:07:09;;;;;;;10.95;1.52;;;;;;;;;;5055799;28;20025;-58
2024/03/16 14:09:38;;;;;;;8.00;1.33;;;;;;;;;;5058360;28;20037;-58
2024/03/16 14:12:05;;;;;;;9.40;1.30;;;;;;;;;;5051458;28;20032;-58
2024/03/16 14:14:31;;;;;;;9.77;1.80;;;;;;;;;;5055240;28;20085;-58
2024/03/16 14:16:57;;;;;;;5.32;1.27;;;;;;;;;;5056600;28;20046;-59
2024/03/16 14:19:23;;;;;;;7.35;1.73;;;;;;;;;;5058855;28;20037;-58
2024/03/16 14:21:48;;;;;;;7.20;1.37;;;;;;;;;;5052537;28;20052;-58
2024/03/16 14:24:13;;;;;;;3.20;1.10;;;;;;;;;;5054537;28;20040;-60
2024/03/16 14:26:41;;;;;;;5.30;1.17;;;;;;;;;;5056033;28;20033;-59
2024/03/16 14:29:07;;;;;;;5.97;1.67;;;;;;;;;;5054948;28;20051;-60
2024/03/16 14:31:33;;;;;;;6.43;1.73;;;;;;;;;;5055494;28;20061;-60
2024/03/16 14:33:58;;;;;;;;;;;;;;;;;;5058073;28;20037;-59